首页
METAR-TAF:

METAR-TAF

机场 :

Benson, 英格兰

纬度: 51-37N, 经度: 001-05W, 海拔: 63米

当前天气观测

该预报发布于50分钟前的02:50 UTC
风速8节,风向
温度 8°C
湿度 87%
气压 1007 hPa

METAR: EGUB 240250Z AUTO 17008KT //// // ///////// 08/06 Q1007

时间: 04:40 (03:40 UTC)

预报

该预报发布于14小时和2分钟前的13:38 UTC
预报有效从23日的 15点(UTC)到 23日的 18点(UTC)
风速10节,风向西转西南
能见度10公里或以上
多云层高于2500英尺
短暂存在
从 23日的 15点(UTC)到 23日的 16点(UTC)
散云层高于2000英尺
几率 30% :
短暂存在
从 23日的 15点(UTC)到 23日的 18点(UTC)
能見度: 7000
小雨

TAF: EGUB 231338Z 2315/2318 25010KT 9999 BKN025 TEMPO 2315/2316 SCT020 PROB30 TEMPO 2315/2318 7000 -RA

超过4000个机场的气象观测和天气预报(METAR&TAF报告)。

可查询的气象台以黄色和红色小点在地图上表示。

将鼠标移到小点上方,可查看气象台名称。

然后点击查看天气观测和预报。

如需切换地图:点击带黑十字的绿色按钮放大地图;点击带横线的绿色按钮缩小地图;或者点击绿色箭头查看邻近地区的地图。


METAR-TAF: